Time;durP1;ratioP1;P1;durP2;ratioP2;P2;SDS_P1;SDS_P2;PMS_P1;PMS_P2;Temp;Humidity;BMP_temperature;BMP_pressure;BME280_temperature;BME280_humidity;BME280_pressure;Samples;Min_cycle;Max_cycle;Signal;HPM_P1;HPM_P2
2023/06/26 00:00:21;;;;;;;16.15;14.43;;;;;;;;;;5081360;28;20032;-78
2023/06/26 00:02:47;;;;;;;17.00;15.25;;;;;;;;;;5081482;28;20324;-78
2023/06/26 00:05:13;;;;;;;18.08;14.70;;;;;;;;;;5081032;28;20525;-79
2023/06/26 00:07:38;;;;;;;15.77;14.38;;;;;;;;;;5079740;28;20084;-80
2023/06/26 00:10:04;;;;;;;16.00;14.45;;;;;;;;;;5069550;28;20024;-77
2023/06/26 00:12:30;;;;;;;17.33;15.80;;;;;;;;;;5081451;28;20110;-80
2023/06/26 00:14:56;;;;;;;17.77;16.10;;;;;;;;;;5081516;28;20026;-78
2023/06/26 00:17:21;;;;;;;20.00;16.90;;;;;;;;;;5078826;28;20032;-78
2023/06/26 00:19:47;;;;;;;18.55;16.80;;;;;;;;;;5080133;28;20020;-79
2023/06/26 00:22:12;;;;;;;17.13;15.55;;;;;;;;;;5080350;28;20031;-78
2023/06/26 00:24:37;;;;;;;17.52;15.93;;;;;;;;;;5069907;28;20441;-78
2023/06/26 00:27:03;;;;;;;19.88;16.73;;;;;;;;;;5078099;28;20040;-78
2023/06/26 00:29:28;;;;;;;19.90;17.10;;;;;;;;;;5076001;28;20355;-78
2023/06/26 00:31:53;;;;;;;18.40;16.65;;;;;;;;;;5081379;28;20035;-78
2023/06/26 00:34:19;;;;;;;18.38;16.65;;;;;;;;;;5080594;28;20024;-78
2023/06/26 00:36:44;;;;;;;19.23;17.08;;;;;;;;;;5077512;28;20036;-78
2023/06/26 00:39:10;;;;;;;20.50;18.60;;;;;;;;;;5072969;28;22448;-80
2023/06/26 00:41:38;;;;;;;20.05;18.10;;;;;;;;;;5076324;28;20070;-78
2023/06/26 00:44:04;;;;;;;21.02;18.88;;;;;;;;;;5079734;28;20038;-78
2023/06/26 00:46:29;;;;;;;23.35;21.20;;;;;;;;;;5081898;28;20024;-80
2023/06/26 00:48:55;;;;;;;22.05;19.90;;;;;;;;;;5078182;28;20424;-79
2023/06/26 00:51:21;;;;;;;21.73;19.42;;;;;;;;;;5079580;28;20020;-80
2023/06/26 00:53:47;;;;;;;22.30;19.98;;;;;;;;;;5076132;28;20028;-79
2023/06/26 00:56:14;;;;;;;24.48;22.00;;;;;;;;;;5072824;28;20040;-78
2023/06/26 00:58:39;;;;;;;23.65;21.52;;;;;;;;;;5076739;28;20065;-78
2023/06/26 01:01:08;;;;;;;22.23;20.23;;;;;;;;;;5069712;28;20036;-77
2023/06/26 01:03:34;;;;;;;22.00;19.92;;;;;;;;;;5080234;28;20217;-78
2023/06/26 01:05:59;;;;;;;21.90;19.73;;;;;;;;;;5078639;28;20518;-77
2023/06/26 01:08:25;;;;;;;23.55;21.20;;;;;;;;;;5077263;28;20069;-78
2023/06/26 01:10:50;;;;;;;22.20;20.10;;;;;;;;;;5067658;28;20028;-79
2023/06/26 01:13:16;;;;;;;23.25;21.05;;;;;;;;;;5077401;28;20339;-77
2023/06/26 01:15:41;;;;;;;23.58;21.33;;;;;;;;;;5079763;28;20055;-79
2023/06/26 01:18:07;;;;;;;24.42;22.23;;;;;;;;;;5078781;28;20541;-77
2023/06/26 01:20:35;;;;;;;24.58;22.02;;;;;;;;;;5080692;28;20028;-78
2023/06/26 01:23:05;;;;;;;25.38;23.05;;;;;;;;;;5077537;28;20028;-76
2023/06/26 01:25:49;;;;;;;25.20;22.80;;;;;;;;;;5069038;28;20111;-79
2023/06/26 01:28:14;;;;;;;24.27;21.75;;;;;;;;;;5083813;28;20110;-78
2023/06/26 01:30:42;;;;;;;25.17;22.88;;;;;;;;;;5083890;28;20111;-79
2023/06/26 01:33:07;;;;;;;25.08;22.65;;;;;;;;;;5083259;28;20020;-78
2023/06/26 01:35:32;;;;;;;24.27;22.08;;;;;;;;;;5083908;28;20024;-78
2023/06/26 01:38:17;;;;;;;23.42;21.20;;;;;;;;;;5083223;28;20028;-79
2023/06/26 01:40:45;;;;;;;22.90;20.83;;;;;;;;;;5074223;28;20100;-79
2023/06/26 01:43:29;;;;;;;24.10;21.80;;;;;;;;;;5082439;28;20140;-78
2023/06/26 01:45:57;;;;;;;25.85;21.85;;;;;;;;;;5083350;28;20032;-77
2023/06/26 01:48:24;;;;;;;23.98;21.45;;;;;;;;;;5082015;28;20029;-79
2023/06/26 01:50:51;;;;;;;23.48;21.42;;;;;;;;;;5082270;28;20028;-78
2023/06/26 01:53:17;;;;;;;23.77;21.50;;;;;;;;;;5081428;28;20363;-79
2023/06/26 01:56:01;;;;;;;25.40;22.98;;;;;;;;;;5064804;28;20032;-78
2023/06/26 01:58:27;;;;;;;26.48;24.08;;;;;;;;;;5082297;28;20079;-78
2023/06/26 02:00:53;;;;;;;25.77;23.30;;;;;;;;;;5081728;28;20059;-79
2023/06/26 02:03:19;;;;;;;25.20;22.75;;;;;;;;;;5082423;28;20376;-78
2023/06/26 02:05:45;;;;;;;25.75;23.15;;;;;;;;;;5083104;28;20063;-77
2023/06/26 02:08:10;;;;;;;26.75;24.25;;;;;;;;;;5080757;28;20109;-78
2023/06/26 02:10:36;;;;;;;25.65;23.00;;;;;;;;;;5072184;28;20059;-79
2023/06/26 02:13:01;;;;;;;26.00;22.75;;;;;;;;;;5074511;28;20027;-79
2023/06/26 02:15:26;;;;;;;25.10;22.83;;;;;;;;;;5077585;28;20033;-79
2023/06/26 02:17:52;;;;;;;25.17;22.85;;;;;;;;;;5083625;28;20032;-78
2023/06/26 02:20:17;;;;;;;26.38;23.73;;;;;;;;;;5082157;28;20443;-79
2023/06/26 02:22:43;;;;;;;26.52;24.23;;;;;;;;;;5081865;28;20630;-78
2023/06/26 02:25:09;;;;;;;25.95;23.55;;;;;;;;;;5070081;28;20029;-79
2023/06/26 02:27:34;;;;;;;24.58;22.45;;;;;;;;;;5082116;28;20036;-79
2023/06/26 02:29:59;;;;;;;28.75;23.95;;;;;;;;;;5079756;28;20035;-79
2023/06/26 02:32:25;;;;;;;26.33;23.75;;;;;;;;;;5073574;28;20210;-80
2023/06/26 02:34:53;;;;;;;28.33;23.92;;;;;;;;;;5083036;28;20028;-79
2023/06/26 02:37:19;;;;;;;26.33;23.98;;;;;;;;;;5080190;28;20031;-79
2023/06/26 02:39:44;;;;;;;28.15;25.45;;;;;;;;;;5073461;28;20123;-79
2023/06/26 02:42:09;;;;;;;26.20;23.80;;;;;;;;;;5079620;28;20448;-80
2023/06/26 02:44:35;;;;;;;27.05;24.27;;;;;;;;;;5082278;28;20367;-78
2023/06/26 02:47:00;;;;;;;25.70;23.25;;;;;;;;;;5079474;28;20743;-78
2023/06/26 02:49:25;;;;;;;27.13;24.67;;;;;;;;;;5081656;28;20024;-78
2023/06/26 02:51:51;;;;;;;27.00;24.35;;;;;;;;;;5080409;28;20307;-79
2023/06/26 02:54:16;;;;;;;26.05;23.65;;;;;;;;;;5067675;28;20024;-80
2023/06/26 02:56:42;;;;;;;26.75;24.00;;;;;;;;;;5074121;28;20016;-79
2023/06/26 02:59:08;;;;;;;28.15;25.33;;;;;;;;;;5081439;28;20410;-79
2023/06/26 03:01:33;;;;;;;29.42;23.52;;;;;;;;;;5069937;28;20020;-78
2023/06/26 03:04:00;;;;;;;25.23;22.65;;;;;;;;;;5081742;28;20024;-81
2023/06/26 03:06:25;;;;;;;26.27;23.98;;;;;;;;;;5081553;28;20024;-77
2023/06/26 03:08:51;;;;;;;29.05;26.20;;;;;;;;;;5079575;28;20434;-78
2023/06/26 03:11:16;;;;;;;26.17;23.85;;;;;;;;;;5073861;28;20350;-78
2023/06/26 03:13:41;;;;;;;25.48;23.00;;;;;;;;;;5080843;28;20140;-79
2023/06/26 03:16:07;;;;;;;25.38;22.77;;;;;;;;;;5081926;28;20039;-78
2023/06/26 03:18:32;;;;;;;26.77;24.20;;;;;;;;;;5081216;28;20043;-78
2023/06/26 03:20:58;;;;;;;25.77;22.95;;;;;;;;;;5081744;28;20028;-77
2023/06/26 03:23:23;;;;;;;27.23;24.45;;;;;;;;;;5080120;28;20097;-81
2023/06/26 03:25:49;;;;;;;27.77;25.23;;;;;;;;;;5071381;28;20028;-78
2023/06/26 03:28:15;;;;;;;26.90;24.38;;;;;;;;;;5082944;28;20476;-78
2023/06/26 03:30:40;;;;;;;26.63;24.23;;;;;;;;;;5082835;28;20028;-77
2023/06/26 03:33:05;;;;;;;25.08;22.75;;;;;;;;;;5075964;28;20020;-78
2023/06/26 03:35:31;;;;;;;24.92;22.35;;;;;;;;;;5073452;28;20303;-77
2023/06/26 03:37:57;;;;;;;25.13;22.92;;;;;;;;;;5080176;28;20070;-78
2023/06/26 03:40:22;;;;;;;26.15;23.65;;;;;;;;;;5065631;28;20416;-78
2023/06/26 03:42:47;;;;;;;25.85;23.55;;;;;;;;;;5082881;28;20099;-79
2023/06/26 03:45:13;;;;;;;26.65;24.05;;;;;;;;;;5080972;28;20028;-80
2023/06/26 03:47:38;;;;;;;25.83;23.55;;;;;;;;;;5081168;28;20042;-78
2023/06/26 03:50:03;;;;;;;26.77;24.15;;;;;;;;;;5077951;28;20043;-78
2023/06/26 03:52:30;;;;;;;26.27;23.67;;;;;;;;;;5081072;28;20555;-79
2023/06/26 03:54:56;;;;;;;27.50;24.58;;;;;;;;;;5073078;28;20012;-78
2023/06/26 03:57:22;;;;;;;25.25;22.88;;;;;;;;;;5080004;28;20427;-79
2023/06/26 03:59:47;;;;;;;27.80;24.95;;;;;;;;;;5080169;28;20540;-78
2023/06/26 04:02:12;;;;;;;25.23;23.00;;;;;;;;;;5063045;28;20047;-80
2023/06/26 04:04:38;;;;;;;27.10;24.48;;;;;;;;;;5062172;28;20753;-80
2023/06/26 04:07:04;;;;;;;25.73;23.27;;;;;;;;;;5059462;28;20057;-80
2023/06/26 04:09:29;;;;;;;27.58;24.98;;;;;;;;;;5061167;28;20032;-78
2023/06/26 04:11:55;;;;;;;26.95;24.33;;;;;;;;;;5063910;28;20028;-79
2023/06/26 04:14:20;;;;;;;27.88;25.02;;;;;;;;;;5058325;28;20127;-78
2023/06/26 04:16:45;;;;;;;27.45;24.98;;;;;;;;;;5057733;28;20016;-79
2023/06/26 04:19:11;;;;;;;28.13;25.58;;;;;;;;;;5065365;28;20028;-79
2023/06/26 04:21:36;;;;;;;28.05;25.58;;;;;;;;;;5078791;28;20144;-78
2023/06/26 04:24:01;;;;;;;28.35;25.58;;;;;;;;;;5079726;28;20027;-80
2023/06/26 04:26:27;;;;;;;26.83;24.33;;;;;;;;;;5073548;28;20028;-77
2023/06/26 04:28:53;;;;;;;28.13;25.50;;;;;;;;;;5075159;28;20042;-79
2023/06/26 04:31:18;;;;;;;26.70;24.08;;;;;;;;;;5079463;28;20024;-79
2023/06/26 04:33:44;;;;;;;26.00;23.60;;;;;;;;;;5079894;28;20060;-81
2023/06/26 04:36:09;;;;;;;26.77;24.23;;;;;;;;;;5082425;28;20459;-81
2023/06/26 04:38:34;;;;;;;26.13;23.83;;;;;;;;;;5079017;28;20443;-81
2023/06/26 04:41:00;;;;;;;24.17;22.08;;;;;;;;;;5067969;28;20020;-82
2023/06/26 04:43:26;;;;;;;25.48;23.27;;;;;;;;;;5067146;28;20048;-82
2023/06/26 04:45:51;;;;;;;27.73;24.90;;;;;;;;;;5074224;28;20024;-80
2023/06/26 04:48:16;;;;;;;26.67;24.33;;;;;;;;;;5078398;28;20039;-83
2023/06/26 04:50:42;;;;;;;25.88;23.67;;;;;;;;;;5073288;28;20016;-82
2023/06/26 04:53:07;;;;;;;27.02;24.63;;;;;;;;;;5066173;28;20032;-79
2023/06/26 04:55:32;;;;;;;27.20;24.67;;;;;;;;;;5067822;28;20028;-81
2023/06/26 04:57:58;;;;;;;25.63;23.25;;;;;;;;;;5064314;28;20048;-79
2023/06/26 05:00:24;;;;;;;25.83;23.13;;;;;;;;;;5067401;28;20141;-79
2023/06/26 05:02:58;;;;;;;24.65;22.25;;;;;;;;;;5081550;28;20028;-79
2023/06/26 05:05:24;;;;;;;25.77;23.38;;;;;;;;;;5080926;28;20377;-79
2023/06/26 05:07:49;;;;;;;24.95;22.40;;;;;;;;;;5085491;28;20030;-79
2023/06/26 05:10:14;;;;;;;25.48;23.13;;;;;;;;;;5083744;28;20106;-79
2023/06/26 05:12:40;;;;;;;25.73;23.27;;;;;;;;;;5087301;28;20038;-79
2023/06/26 05:15:05;;;;;;;27.05;24.40;;;;;;;;;;5084118;28;20023;-79
2023/06/26 05:17:31;;;;;;;24.90;22.55;;;;;;;;;;5085121;28;20023;-78
2023/06/26 05:19:56;;;;;;;24.40;22.23;;;;;;;;;;5084769;28;20040;-80
2023/06/26 05:22:21;;;;;;;25.33;22.88;;;;;;;;;;5085466;28;20042;-77
2023/06/26 05:24:47;;;;;;;25.08;22.67;;;;;;;;;;5084804;28;20043;-78
2023/06/26 05:27:20;;;;;;;25.45;23.15;;;;;;;;;;5085859;28;20032;-77
2023/06/26 05:29:46;;;;;;;25.10;22.70;;;;;;;;;;5086103;28;20110;-78
2023/06/26 05:32:12;;;;;;;26.48;23.92;;;;;;;;;;5086171;28;20028;-77
2023/06/26 05:34:38;;;;;;;26.30;23.88;;;;;;;;;;5085597;28;20107;-80
2023/06/26 05:37:04;;;;;;;26.55;23.98;;;;;;;;;;5084668;28;20103;-78
2023/06/26 05:39:29;;;;;;;24.98;22.70;;;;;;;;;;5085748;28;20451;-78
2023/06/26 05:41:56;;;;;;;23.55;21.15;;;;;;;;;;5086527;28;20140;-78
2023/06/26 05:44:21;;;;;;;24.65;22.15;;;;;;;;;;5084246;28;20354;-80
2023/06/26 05:46:46;;;;;;;21.60;19.60;;;;;;;;;;5086556;28;20532;-80
2023/06/26 05:49:12;;;;;;;21.50;19.55;;;;;;;;;;5085311;28;20043;-78
2023/06/26 05:51:37;;;;;;;21.73;19.63;;;;;;;;;;5085971;28;20027;-77
2023/06/26 05:54:03;;;;;;;21.65;19.55;;;;;;;;;;5086494;28;20064;-78
2023/06/26 05:56:28;;;;;;;20.20;18.30;;;;;;;;;;5085426;28;20631;-77
2023/06/26 05:58:54;;;;;;;20.10;18.20;;;;;;;;;;5086867;28;20093;-78
2023/06/26 06:01:19;;;;;;;19.70;17.90;;;;;;;;;;5087527;28;20024;-80
2023/06/26 06:03:45;;;;;;;20.50;18.60;;;;;;;;;;5084437;28;20035;-80
2023/06/26 06:06:11;;;;;;;19.75;17.85;;;;;;;;;;5085862;28;20336;-81
2023/06/26 06:08:36;;;;;;;19.30;17.35;;;;;;;;;;5086073;28;20135;-79
2023/06/26 06:11:01;;;;;;;17.67;16.02;;;;;;;;;;5086067;28;20028;-79
2023/06/26 06:13:27;;;;;;;16.63;15.13;;;;;;;;;;5084778;28;20652;-79
2023/06/26 06:15:53;;;;;;;16.40;14.82;;;;;;;;;;5083345;28;20020;-80
2023/06/26 06:18:18;;;;;;;14.70;13.40;;;;;;;;;;5081970;28;20354;-77
2023/06/26 06:20:44;;;;;;;15.23;13.93;;;;;;;;;;5081936;28;20401;-82
2023/06/26 06:23:09;;;;;;;15.52;14.02;;;;;;;;;;5081316;28;20462;-79
2023/06/26 06:25:34;;;;;;;15.18;13.77;;;;;;;;;;5080167;28;20077;-78
2023/06/26 06:28:00;;;;;;;17.85;16.13;;;;;;;;;;5082403;28;20032;-80
2023/06/26 06:30:25;;;;;;;18.25;16.48;;;;;;;;;;5080149;28;20030;-79
2023/06/26 06:32:52;;;;;;;16.45;14.85;;;;;;;;;;5081159;28;20043;-78
2023/06/26 06:35:18;;;;;;;16.65;15.05;;;;;;;;;;5080911;28;20343;-79
2023/06/26 06:37:43;;;;;;;17.48;15.88;;;;;;;;;;5079940;28;20435;-78
2023/06/26 06:40:09;;;;;;;16.75;15.05;;;;;;;;;;5083652;28;20050;-76
2023/06/26 06:42:35;;;;;;;17.02;15.52;;;;;;;;;;5082198;28;20108;-79
2023/06/26 06:45:02;;;;;;;17.73;16.08;;;;;;;;;;5079574;28;20444;-77
2023/06/26 06:47:27;;;;;;;17.67;16.00;;;;;;;;;;5081286;28;20024;-76
2023/06/26 06:49:53;;;;;;;18.77;16.92;;;;;;;;;;5081239;28;20046;-77
2023/06/26 06:52:18;;;;;;;23.50;21.40;;;;;;;;;;5081507;28;20020;-77
2023/06/26 06:54:54;;;;;;;21.88;19.83;;;;;;;;;;5079719;28;20016;-78
2023/06/26 06:57:20;;;;;;;17.98;16.23;;;;;;;;;;5081367;28;20438;-77
2023/06/26 06:59:47;;;;;;;15.20;13.70;;;;;;;;;;5080932;28;20047;-77
2023/06/26 07:02:12;;;;;;;14.63;13.15;;;;;;;;;;5082106;28;20111;-77
2023/06/26 07:04:37;;;;;;;14.88;13.38;;;;;;;;;;5080696;28;20107;-77
2023/06/26 07:07:03;;;;;;;17.05;15.45;;;;;;;;;;5080556;28;20489;-77
2023/06/26 07:09:28;;;;;;;16.45;15.10;;;;;;;;;;5080933;28;20339;-78
2023/06/26 07:11:54;;;;;;;16.20;14.70;;;;;;;;;;5082716;28;20447;-78
2023/06/26 07:14:19;;;;;;;15.55;14.15;;;;;;;;;;5079006;28;20020;-79
2023/06/26 07:16:44;;;;;;;17.05;15.35;;;;;;;;;;5080257;28;20072;-76
2023/06/26 07:19:10;;;;;;;16.20;14.65;;;;;;;;;;5080383;28;20028;-77
2023/06/26 07:21:35;;;;;;;15.88;14.57;;;;;;;;;;5081312;28;20016;-77
2023/06/26 07:24:01;;;;;;;15.45;14.02;;;;;;;;;;5081953;28;20040;-79
2023/06/26 07:26:26;;;;;;;15.82;14.35;;;;;;;;;;5081515;28;20343;-79
2023/06/26 07:28:51;;;;;;;15.40;14.00;;;;;;;;;;5083096;28;21116;-79
2023/06/26 07:31:17;;;;;;;15.95;14.45;;;;;;;;;;5081362;28;20028;-78
2023/06/26 07:33:42;;;;;;;15.32;13.73;;;;;;;;;;5082055;28;20101;-78
2023/06/26 07:36:07;;;;;;;14.07;12.88;;;;;;;;;;5082666;28;20059;-78
2023/06/26 07:38:33;;;;;;;14.50;13.10;;;;;;;;;;5081508;28;20032;-78
2023/06/26 07:40:58;;;;;;;15.18;13.68;;;;;;;;;;5077662;28;20032;-78
2023/06/26 07:43:24;;;;;;;13.25;11.88;;;;;;;;;;5080688;28;20456;-78
2023/06/26 07:45:51;;;;;;;12.85;11.65;;;;;;;;;;5081887;28;20070;-79
2023/06/26 07:48:16;;;;;;;12.90;11.70;;;;;;;;;;5081789;28;20024;-79
2023/06/26 07:50:42;;;;;;;12.93;11.73;;;;;;;;;;5080780;28;20034;-79
2023/06/26 07:53:07;;;;;;;12.27;11.10;;;;;;;;;;5078862;28;20042;-78
2023/06/26 07:55:32;;;;;;;12.50;11.40;;;;;;;;;;5079908;28;20393;-77
2023/06/26 07:57:58;;;;;;;12.70;11.50;;;;;;;;;;5079850;28;20044;-79
2023/06/26 08:00:23;;;;;;;13.30;11.82;;;;;;;;;;5081842;28;20115;-78
2023/06/26 08:02:49;;;;;;;12.65;11.35;;;;;;;;;;5074340;28;20020;-78
2023/06/26 08:05:14;;;;;;;12.65;10.90;;;;;;;;;;5081236;28;20113;-78
2023/06/26 08:07:39;;;;;;;12.70;11.57;;;;;;;;;;5082048;28;20099;-78
2023/06/26 08:10:05;;;;;;;11.85;10.73;;;;;;;;;;5080323;28;20020;-78
2023/06/26 08:12:31;;;;;;;12.75;11.20;;;;;;;;;;5080018;28;20066;-78
2023/06/26 08:14:56;;;;;;;12.68;11.48;;;;;;;;;;5078897;28;20031;-78
2023/06/26 08:17:21;;;;;;;12.27;11.23;;;;;;;;;;5078597;28;20034;-76
2023/06/26 08:19:47;;;;;;;12.32;11.23;;;;;;;;;;5080122;28;20032;-76
2023/06/26 08:22:12;;;;;;;11.85;10.65;;;;;;;;;;5078454;28;20103;-77
2023/06/26 08:24:38;;;;;;;11.90;10.50;;;;;;;;;;5080995;28;20020;-77
2023/06/26 08:27:03;;;;;;;11.45;10.48;;;;;;;;;;5079450;28;20431;-78
2023/06/26 08:29:29;;;;;;;11.98;10.88;;;;;;;;;;5080764;28;20063;-77
2023/06/26 08:31:54;;;;;;;12.18;10.93;;;;;;;;;;5080656;28;20031;-77
2023/06/26 08:34:19;;;;;;;12.07;10.88;;;;;;;;;;5081246;28;20028;-78
2023/06/26 08:36:45;;;;;;;11.63;10.52;;;;;;;;;;5080592;28;20097;-78
2023/06/26 08:39:10;;;;;;;10.80;9.88;;;;;;;;;;5082065;28;20454;-77
2023/06/26 08:41:36;;;;;;;16.55;10.82;;;;;;;;;;5078386;28;20036;-77
2023/06/26 08:44:04;;;;;;;11.65;10.55;;;;;;;;;;5079286;28;20017;-77
2023/06/26 08:46:30;;;;;;;11.48;10.48;;;;;;;;;;5080773;28;20024;-79
2023/06/26 08:48:56;;;;;;;12.07;10.98;;;;;;;;;;5081814;28;20024;-78
2023/06/26 08:51:24;;;;;;;12.02;10.95;;;;;;;;;;5077782;28;20308;-78
2023/06/26 08:53:55;;;;;;;11.20;10.20;;;;;;;;;;5079940;28;20035;-78
2023/06/26 08:56:22;;;;;;;11.48;10.43;;;;;;;;;;5079603;28;20042;-78
2023/06/26 08:58:47;;;;;;;11.48;10.30;;;;;;;;;;5076358;28;20071;-78
2023/06/26 09:01:13;;;;;;;10.70;9.80;;;;;;;;;;5079957;28;20063;-78
2023/06/26 09:03:38;;;;;;;10.68;9.07;;;;;;;;;;5079437;28;20027;-79
2023/06/26 09:06:04;;;;;;;10.00;9.20;;;;;;;;;;5080887;28;20036;-77
2023/06/26 09:08:29;;;;;;;10.98;9.48;;;;;;;;;;5081426;28;20089;-76
2023/06/26 09:10:54;;;;;;;11.00;9.88;;;;;;;;;;5078197;28;20024;-80
2023/06/26 09:13:20;;;;;;;11.00;10.00;;;;;;;;;;5079849;28;20027;-76
2023/06/26 09:15:46;;;;;;;11.10;10.00;;;;;;;;;;5080307;28;20078;-78
2023/06/26 09:18:12;;;;;;;10.60;9.70;;;;;;;;;;5081077;28;20466;-78
2023/06/26 09:20:37;;;;;;;10.55;9.65;;;;;;;;;;5077416;28;20028;-78
2023/06/26 09:23:03;;;;;;;11.00;9.90;;;;;;;;;;5079582;28;20039;-77
2023/06/26 09:25:28;;;;;;;10.90;9.95;;;;;;;;;;5080752;28;20028;-77
2023/06/26 09:27:54;;;;;;;10.57;9.68;;;;;;;;;;5080758;28;20027;-78
2023/06/26 09:30:19;;;;;;;11.18;10.23;;;;;;;;;;5077985;28;20032;-77
2023/06/26 09:32:45;;;;;;;11.93;10.73;;;;;;;;;;5077997;28;20078;-76
2023/06/26 09:35:10;;;;;;;9.30;8.50;;;;;;;;;;5080003;28;20027;-76
2023/06/26 09:37:36;;;;;;;10.18;9.27;;;;;;;;;;5080009;28;20094;-76
2023/06/26 09:40:02;;;;;;;9.02;8.15;;;;;;;;;;5079682;28;20036;-78
2023/06/26 09:42:28;;;;;;;9.40;8.50;;;;;;;;;;5080514;28;20102;-77
2023/06/26 09:44:54;;;;;;;9.75;8.95;;;;;;;;;;5075497;28;20408;-78
2023/06/26 09:47:20;;;;;;;10.38;8.40;;;;;;;;;;5079803;28;20027;-76
2023/06/26 09:49:46;;;;;;;9.73;8.75;;;;;;;;;;5078832;28;20363;-77
2023/06/26 09:52:15;;;;;;;10.43;9.63;;;;;;;;;;5080977;28;20032;-78
2023/06/26 09:54:40;;;;;;;9.13;8.32;;;;;;;;;;5082341;28;20023;-76
2023/06/26 09:57:09;;;;;;;6.05;5.55;;;;;;;;;;5083250;28;20132;-76
2023/06/26 09:59:36;;;;;;;6.78;4.97;;;;;;;;;;5082472;28;20086;-78
2023/06/26 10:02:01;;;;;;;6.78;5.15;;;;;;;;;;5083185;28;20024;-78
2023/06/26 10:04:27;;;;;;;5.95;5.40;;;;;;;;;;5083275;28;20415;-77
2023/06/26 10:06:54;;;;;;;6.30;5.70;;;;;;;;;;5080386;28;20028;-76
2023/06/26 10:09:20;;;;;;;6.32;5.53;;;;;;;;;;5082010;28;20034;-78
2023/06/26 10:12:07;;;;;;;6.53;5.93;;;;;;;;;;5081027;28;20027;-77
2023/06/26 10:14:37;;;;;;;6.60;5.90;;;;;;;;;;5083150;28;20351;-80
2023/06/26 10:17:04;;;;;;;7.20;6.38;;;;;;;;;;5083245;28;20103;-77
2023/06/26 10:19:30;;;;;;;6.30;5.65;;;;;;;;;;5083874;28;20082;-76
2023/06/26 10:21:55;;;;;;;5.90;5.40;;;;;;;;;;5063583;28;20103;-77
2023/06/26 10:24:22;;;;;;;6.00;5.50;;;;;;;;;;5082449;28;20119;-78
2023/06/26 10:26:49;;;;;;;7.03;6.03;;;;;;;;;;5084294;28;20074;-79
2023/06/26 10:29:15;;;;;;;6.68;5.75;;;;;;;;;;5081693;28;20038;-79
2023/06/26 10:31:42;;;;;;;5.03;4.63;;;;;;;;;;5081558;28;20042;-78
2023/06/26 10:34:08;;;;;;;4.95;4.55;;;;;;;;;;5079766;28;20012;-78
2023/06/26 10:36:35;;;;;;;4.47;4.13;;;;;;;;;;5082938;28;20020;-78
2023/06/26 10:39:07;;;;;;;5.05;4.65;;;;;;;;;;5080953;28;20044;-79
2023/06/26 10:41:37;;;;;;;5.18;4.78;;;;;;;;;;5080940;28;20039;-78
2023/06/26 10:44:07;;;;;;;4.75;4.22;;;;;;;;;;5081891;28;20047;-77
2023/06/26 10:47:01;;;;;;;4.90;4.50;;;;;;;;;;5080714;28;20109;-77
2023/06/26 10:49:29;;;;;;;5.78;5.20;;;;;;;;;;5038158;28;20051;-78
2023/06/26 10:51:58;;;;;;;5.43;4.93;;;;;;;;;;5039876;28;20087;-76
2023/06/26 10:54:23;;;;;;;6.88;6.22;;;;;;;;;;5039578;28;20036;-77
2023/06/26 10:56:50;;;;;;;7.78;7.07;;;;;;;;;;5039236;28;20028;-77
2023/06/26 10:59:19;;;;;;;7.78;7.05;;;;;;;;;;5040460;28;20045;-78
2023/06/26 11:01:47;;;;;;;6.78;6.05;;;;;;;;;;5038298;28;20146;-77
2023/06/26 11:04:15;;;;;;;7.05;6.00;;;;;;;;;;5040803;28;20052;-79
2023/06/26 11:06:40;;;;;;;5.25;4.70;;;;;;;;;;5041047;28;20045;-76
2023/06/26 11:09:13;;;;;;;6.30;5.75;;;;;;;;;;5039772;28;20159;-76
2023/06/26 11:12:10;;;;;;;6.75;6.07;;;;;;;;;;5039281;28;20033;-75
2023/06/26 11:14:36;;;;;;;6.47;5.88;;;;;;;;;;4977406;28;20469;-76
2023/06/26 11:17:04;;;;;;;6.50;5.85;;;;;;;;;;4974380;28;20034;-78
2023/06/26 11:19:30;;;;;;;6.25;5.75;;;;;;;;;;4977548;28;20057;-78
2023/06/26 11:21:59;;;;;;;6.80;5.38;;;;;;;;;;4977069;28;20432;-77
2023/06/26 11:24:24;;;;;;;;;;;;;;;;;;4978009;28;20398;-77
2023/06/26 11:26:49;;;;;;;5.07;4.67;;;;;;;;;;5013620;28;20064;-78
2023/06/26 11:29:15;;;;;;;6.03;4.95;;;;;;;;;;5015542;28;20076;-77
2023/06/26 11:31:41;;;;;;;5.70;5.10;;;;;;;;;;5014135;28;20454;-78
2023/06/26 11:34:08;;;;;;;4.93;4.50;;;;;;;;;;5017128;28;20022;-78
2023/06/26 11:36:37;;;;;;;5.45;4.97;;;;;;;;;;5016351;28;20041;-77
2023/06/26 11:39:04;;;;;;;5.45;4.85;;;;;;;;;;5016323;28;20057;-78
2023/06/26 11:41:31;;;;;;;5.32;4.75;;;;;;;;;;5016281;28;20037;-77
2023/06/26 11:44:20;;;;;;;4.70;4.30;;;;;;;;;;5014492;28;20029;-79
2023/06/26 11:46:45;;;;;;;;;;;;;;;;;;5015212;28;20107;-78
2023/06/26 11:49:10;;;;;;;5.90;5.30;;;;;;;;;;5019239;28;20466;-78
2023/06/26 11:51:36;;;;;;;7.28;5.03;;;;;;;;;;5081359;28;20035;-78
2023/06/26 11:54:05;;;;;;;7.55;4.97;;;;;;;;;;5080784;28;20054;-77
2023/06/26 11:56:30;;;;;;;5.80;5.20;;;;;;;;;;5078836;28;21329;-77
2023/06/26 11:59:02;;;;;;;10.18;5.70;;;;;;;;;;5081752;28;20040;-77
2023/06/26 12:01:41;;;;;;;6.15;5.65;;;;;;;;;;5080997;28;20032;-77
2023/06/26 12:04:07;;;;;;;6.40;5.80;;;;;;;;;;5081635;28;20111;-78
2023/06/26 12:06:37;;;;;;;6.22;5.13;;;;;;;;;;5080261;28;20016;-76
2023/06/26 12:09:05;;;;;;;6.28;5.70;;;;;;;;;;5079011;28;20432;-76
2023/06/26 12:11:30;;;;;;;6.00;5.50;;;;;;;;;;5078045;28;20082;-76
2023/06/26 12:13:56;;;;;;;5.97;5.47;;;;;;;;;;5079630;28;20052;-76
2023/06/26 12:16:21;;;;;;;6.43;5.85;;;;;;;;;;5078550;28;20027;-79
2023/06/26 12:18:47;;;;;;;6.35;5.53;;;;;;;;;;5082289;28;20040;-78
2023/06/26 12:21:48;;;;;;;5.53;5.00;;;;;;;;;;5082514;28;20420;-78
2023/06/26 12:24:14;;;;;;;6.07;4.47;;;;;;;;;;5040976;28;20547;-78
2023/06/26 12:26:44;;;;;;;4.80;4.30;;;;;;;;;;5041293;28;20060;-79
2023/06/26 12:29:11;;;;;;;5.68;5.05;;;;;;;;;;5023989;28;20407;-77
2023/06/26 12:31:39;;;;;;;6.80;6.10;;;;;;;;;;5040926;28;20139;-80
2023/06/26 12:34:08;;;;;;;8.65;7.75;;;;;;;;;;5040285;28;20116;-76
2023/06/26 12:36:39;;;;;;;4.63;4.28;;;;;;;;;;5038394;28;20033;-76
2023/06/26 12:39:04;;;;;;;4.88;4.20;;;;;;;;;;5039305;28;20135;-78
2023/06/26 12:41:30;;;;;;;4.00;3.63;;;;;;;;;;5040278;28;20433;-76
2023/06/26 12:43:55;;;;;;;4.35;4.05;;;;;;;;;;5042892;28;20146;-76
2023/06/26 12:46:32;;;;;;;4.65;4.28;;;;;;;;;;5041056;28;20091;-76
2023/06/26 12:48:58;;;;;;;5.07;4.57;;;;;;;;;;5041325;28;20029;-77
2023/06/26 12:51:26;;;;;;;4.65;4.25;;;;;;;;;;5040603;28;20388;-76
2023/06/26 12:53:52;;;;;;;5.35;4.82;;;;;;;;;;5038845;28;20071;-78
2023/06/26 12:56:17;;;;;;;4.90;4.35;;;;;;;;;;5041853;28;20045;-78
2023/06/26 12:58:42;;;;;;;5.10;4.57;;;;;;;;;;5067153;28;20043;-77
2023/06/26 13:01:14;;;;;;;6.13;5.55;;;;;;;;;;5081306;28;20093;-77
2023/06/26 13:03:40;;;;;;;8.50;7.80;;;;;;;;;;5079513;28;20021;-77
2023/06/26 13:06:05;;;;;;;8.55;7.10;;;;;;;;;;5079925;28;20042;-76
2023/06/26 13:08:30;;;;;;;7.25;6.38;;;;;;;;;;5078838;28;20028;-77
2023/06/26 13:10:56;;;;;;;5.70;5.20;;;;;;;;;;5078243;28;20039;-79
2023/06/26 13:13:21;;;;;;;5.30;4.80;;;;;;;;;;5080923;28;20062;-78
2023/06/26 13:15:47;;;;;;;4.97;4.43;;;;;;;;;;5079366;28;20028;-75
2023/06/26 13:18:12;;;;;;;5.03;4.63;;;;;;;;;;5080288;28;20460;-78
2023/06/26 13:20:37;;;;;;;6.28;5.35;;;;;;;;;;5077758;28;20455;-76
2023/06/26 13:23:03;;;;;;;5.88;4.82;;;;;;;;;;5066494;28;20492;-78
2023/06/26 13:25:28;;;;;;;4.63;4.22;;;;;;;;;;5074153;28;20028;-78
2023/06/26 13:27:53;;;;;;;5.20;4.70;;;;;;;;;;5068269;28;20036;-76
2023/06/26 13:30:19;;;;;;;4.97;4.57;;;;;;;;;;5074265;28;20116;-76
2023/06/26 13:32:44;;;;;;;5.15;4.75;;;;;;;;;;5083859;28;20024;-78
2023/06/26 13:35:10;;;;;;;5.68;5.15;;;;;;;;;;5072182;28;20050;-77
2023/06/26 13:37:36;;;;;;;5.75;4.95;;;;;;;;;;5082309;28;20036;-76
2023/06/26 13:40:02;;;;;;;5.55;5.05;;;;;;;;;;5084168;28;20036;-79
2023/06/26 13:42:28;;;;;;;8.23;5.43;;;;;;;;;;5083222;28;20047;-76
2023/06/26 13:44:53;;;;;;;11.63;6.32;;;;;;;;;;5073182;28;20081;-78
2023/06/26 13:47:18;;;;;;;9.35;6.05;;;;;;;;;;5084378;28;20378;-77
2023/06/26 13:49:44;;;;;;;6.75;5.28;;;;;;;;;;5082778;28;20020;-75
2023/06/26 13:52:09;;;;;;;4.80;4.45;;;;;;;;;;5073681;28;20455;-78
2023/06/26 13:54:36;;;;;;;4.85;4.40;;;;;;;;;;5083337;28;20061;-78
2023/06/26 13:57:02;;;;;;;5.50;5.00;;;;;;;;;;5083008;28;20028;-78
2023/06/26 13:59:28;;;;;;;5.80;5.30;;;;;;;;;;5069740;28;20485;-78
2023/06/26 14:01:53;;;;;;;5.18;4.68;;;;;;;;;;5076469;28;20035;-79
2023/06/26 14:04:18;;;;;;;5.57;5.07;;;;;;;;;;5079596;28;20056;-78
2023/06/26 14:06:45;;;;;;;8.52;5.45;;;;;;;;;;5082894;28;20024;-78
2023/06/26 14:09:10;;;;;;;5.43;4.82;;;;;;;;;;5082721;28;20039;-78
2023/06/26 14:11:36;;;;;;;5.60;5.07;;;;;;;;;;5083687;28;20043;-79
2023/06/26 14:14:01;;;;;;;4.97;4.50;;;;;;;;;;5077066;28;20043;-80
2023/06/26 14:16:28;;;;;;;5.55;5.13;;;;;;;;;;5077215;28;20070;-78
2023/06/26 14:18:54;;;;;;;7.47;5.65;;;;;;;;;;5082447;28;20115;-79
2023/06/26 14:21:19;;;;;;;6.15;5.55;;;;;;;;;;5082231;28;20103;-82